Time;durP1;ratioP1;P1;durP2;ratioP2;P2;SDS_P1;SDS_P2;PMS_P1;PMS_P2;Temp;Humidity;BMP_temperature;BMP_pressure;BME280_temperature;BME280_humidity;BME280_pressure;Samples;Min_cycle;Max_cycle;Signal;HPM_P1;HPM_P2
2022/12/20 00:00:44;;;;;;;2.27;2.17;;;-2.00;99.90;;;;;;4963544;28;20599;-91
2022/12/20 00:03:10;;;;;;;1.87;1.77;;;-0.30;99.90;;;;;;4975954;28;20207;-91
2022/12/20 00:05:40;;;;;;;3.77;2.83;;;-0.30;99.90;;;;;;4959295;28;20223;-91
2022/12/20 00:08:06;;;;;;;2.17;1.70;;;-1.80;99.90;;;;;;4941772;28;20281;-91
2022/12/20 00:10:36;;;;;;;2.67;2.47;;;-1.80;99.90;;;;;;4973998;28;20269;-90
2022/12/20 00:13:02;;;;;;;2.40;2.20;;;-1.80;99.90;;;;;;4957141;28;20273;-91
2022/12/20 00:15:28;;;;;;;1.80;1.77;;;0.40;99.90;;;;;;4974190;28;20217;-90
2022/12/20 00:17:53;;;;;;;7.77;3.83;;;-0.10;99.90;;;;;;4941036;28;20220;-91
2022/12/20 00:20:19;;;;;;;1.50;1.40;;;-0.50;99.90;;;;;;4957988;28;20183;-90
2022/12/20 00:22:45;;;;;;;9.23;3.27;;;-1.30;99.90;;;;;;4975985;28;20714;-91
2022/12/20 00:25:10;;;;;;;12.77;4.40;;;0.50;99.90;;;;;;4976194;28;20545;-91
2022/12/20 00:27:36;;;;;;;2.07;1.97;;;-1.60;99.90;;;;;;4993824;28;20272;-91
2022/12/20 00:30:02;;;;;;;22.87;4.20;;;-0.20;99.90;;;;;;4979590;28;20713;-91
2022/12/20 00:32:28;;;;;;;2.47;2.37;;;-1.50;99.90;;;;;;4996893;28;20187;-90
2022/12/20 00:34:53;;;;;;;2.73;2.30;;;-0.60;99.90;;;;;;4980574;28;20207;-91
2022/12/20 00:37:19;;;;;;;1.63;1.53;;;1.60;99.90;;;;;;4979737;28;20270;-91
2022/12/20 00:39:45;;;;;;;2.13;2.03;;;-1.60;99.90;;;;;;4987709;28;20192;-91
2022/12/20 00:42:10;;;;;;;4.27;3.87;;;-1.40;99.90;;;;;;4960137;28;20190;-91
2022/12/20 00:44:36;;;;;;;1.70;1.67;;;-1.40;99.90;;;;;;4951368;29;20770;-91
2022/12/20 00:47:01;;;;;;;3.43;1.63;;;0.20;99.90;;;;;;4940852;29;20202;-91
2022/12/20 00:49:27;;;;;;;3.33;3.13;;;-1.30;99.90;;;;;;4940777;28;20761;-89
2022/12/20 00:51:53;;;;;;;6.13;3.23;;;0.40;99.90;;;;;;4976953;28;20549;-90
2022/12/20 00:54:18;;;;;;;5.47;2.70;;;0.80;99.90;;;;;;4960185;28;20245;-90
2022/12/20 00:56:44;;;;;;;3.60;2.67;;;0.60;99.90;;;;;;4944055;28;20182;-90
2022/12/20 00:59:09;;;;;;;4.57;2.67;;;0.50;99.90;;;;;;4959881;28;20191;-90
2022/12/20 01:01:35;;;;;;;4.40;1.87;;;0.30;99.90;;;;;;4943352;28;20238;-91
2022/12/20 01:04:01;;;;;;;10.53;4.07;;;0.60;99.90;;;;;;4976994;28;20295;-91
2022/12/20 01:06:28;;;;;;;2.00;1.80;;;-0.10;99.90;;;;;;4976897;28;20190;-91
2022/12/20 01:08:54;;;;;;;2.70;2.40;;;-1.00;99.90;;;;;;4976377;28;20176;-90
2022/12/20 01:11:32;;;;;;;4.50;3.47;;;-0.80;99.90;;;;;;4976686;28;20531;-90
2022/12/20 01:14:01;;;;;;;3.90;2.23;;;-0.20;99.90;;;;;;4976593;28;20244;-90
2022/12/20 01:16:29;;;;;;;2.00;1.90;;;-0.60;99.90;;;;;;4959064;28;20234;-90
2022/12/20 01:18:55;;;;;;;6.70;1.53;;;-0.90;99.90;;;;;;4976358;28;20701;-90
2022/12/20 01:21:24;;;;;;;4.33;2.90;;;-0.70;99.90;;;;;;4959312;28;20272;-90
2022/12/20 01:23:50;;;;;;;2.00;1.90;;;-0.80;99.90;;;;;;4976184;28;20221;-92
2022/12/20 01:26:18;;;;;;;2.10;1.77;;;-0.40;99.90;;;;;;4976553;28;20194;-90
2022/12/20 01:28:45;;;;;;;1.90;1.80;;;-0.50;99.90;;;;;;4976194;28;20183;-90
2022/12/20 01:31:14;;;;;;;8.60;2.33;;;1.10;99.90;;;;;;4976192;28;20187;-91
2022/12/20 01:33:41;;;;;;;1.70;1.60;;;0.80;99.90;;;;;;4976137;28;20179;-91
2022/12/20 01:36:12;;;;;;;2.03;1.93;;;-0.80;99.90;;;;;;4977206;28;20180;-91
2022/12/20 01:38:37;;;;;;;1.83;1.73;;;-0.70;99.90;;;;;;4977371;28;20271;-91
2022/12/20 01:41:04;;;;;;;3.23;3.03;;;-0.80;99.90;;;;;;4992118;28;20184;-90
2022/12/20 01:43:46;;;;;;;3.00;2.77;;;-0.70;99.90;;;;;;4988134;28;20242;-89
2022/12/20 01:46:12;;;;;;;7.40;2.33;;;0.60;99.90;;;;;;4977068;28;20224;-89
2022/12/20 01:48:39;;;;;;;3.03;2.80;;;-0.50;99.90;;;;;;4944396;28;20639;-89
2022/12/20 01:51:05;;;;;;;3.43;2.73;;;-0.50;99.90;;;;;;4976167;28;20181;-88
2022/12/20 01:53:31;;;;;;;5.00;1.67;;;-0.60;99.90;;;;;;4958574;28;20192;-89
2022/12/20 01:56:00;;;;;;;2.23;2.10;;;-0.60;99.90;;;;;;4979408;28;20178;-89
2022/12/20 01:58:26;;;;;;;3.87;2.77;;;-0.10;99.90;;;;;;4983469;28;20223;-89
2022/12/20 02:00:52;;;;;;;1.93;1.83;;;-0.60;99.90;;;;;;4999850;28;20169;-89
2022/12/20 02:03:17;;;;;;;1.90;1.80;;;-0.20;99.90;;;;;;4979713;28;20224;-90
2022/12/20 02:05:46;;;;;;;2.47;2.30;;;0.20;99.90;;;;;;4958679;28;20269;-89
2022/12/20 02:08:15;;;;;;;1.93;1.83;;;-0.50;99.90;;;;;;4975954;28;20175;-89
2022/12/20 02:11:02;;;;;;;2.67;2.03;;;1.30;99.90;;;;;;4975444;28;20206;-92
2022/12/20 02:13:44;;;;;;;3.37;2.47;;;-0.50;99.90;;;;;;4958312;28;20195;-90
2022/12/20 02:16:14;;;;;;;3.03;2.13;;;0.60;99.90;;;;;;4976372;28;20192;-89
2022/12/20 02:18:57;;;;;;;1.77;1.70;;;0.60;99.90;;;;;;4967571;28;20213;-89
2022/12/20 02:21:37;;;;;;;7.27;2.43;;;-0.50;99.90;;;;;;4975406;28;20665;-90
2022/12/20 02:24:03;;;;;;;1.90;1.87;;;0.60;99.90;;;;;;4957773;28;20238;-89
2022/12/20 02:26:59;;;;;;;6.80;2.30;;;-0.50;99.90;;;;;;4975590;28;20265;-89
2022/12/20 02:29:28;;;;;;;1.23;1.23;;;-0.50;99.90;;;;;;4981225;28;20250;-89
2022/12/20 02:32:03;;;;;;;2.30;2.20;;;-0.50;99.90;;;;;;4957946;28;20187;-90
2022/12/20 02:34:31;;;;;;;2.83;2.37;;;-0.50;99.90;;;;;;4958117;28;20271;-89
2022/12/20 02:36:57;;;;;;;3.73;3.43;;;0.60;99.90;;;;;;4974941;28;20265;-90
2022/12/20 02:39:25;;;;;;;2.07;1.97;;;-0.40;99.90;;;;;;4941729;28;20276;-90
2022/12/20 02:41:57;;;;;;;1.97;1.87;;;1.00;99.90;;;;;;4974807;28;20231;-90
2022/12/20 02:47:21;;;;;;;1.50;1.40;;;-0.40;99.90;;;;;;4982092;28;20236;-89
2022/12/20 02:49:49;;;;;;;4.97;2.97;;;-0.10;99.90;;;;;;4957826;28;20219;-90
2022/12/20 02:52:16;;;;;;;3.17;2.43;;;1.10;99.90;;;;;;4975841;28;20179;-90
2022/12/20 02:54:42;;;;;;;4.33;3.37;;;-0.40;99.90;;;;;;4975111;28;20198;-90
2022/12/20 02:57:21;;;;;;;2.43;2.23;;;-0.40;99.90;;;;;;4941778;28;20182;-89
2022/12/20 03:00:07;;;;;;;7.53;2.13;;;-0.40;99.90;;;;;;4958354;28;20267;-90
2022/12/20 03:03:21;;;;;;;2.07;1.97;;;-0.30;99.90;;;;;;4957943;28;20186;-90
2022/12/20 03:05:22;;;;;;;3.03;2.83;;;1.00;99.90;;;;;;4974735;28;20281;-89
2022/12/20 03:07:48;;;;;;;2.87;2.47;;;-0.10;99.90;;;;;;4988126;28;20198;-88
2022/12/20 03:10:13;;;;;;;2.70;2.50;;;-0.20;99.90;;;;;;4996894;28;20197;-88
2022/12/20 03:12:39;;;;;;;7.70;3.63;;;-0.30;99.90;;;;;;4970328;28;20248;-90
2022/12/20 03:15:05;;;;;;;4.43;3.00;;;2.00;99.90;;;;;;4941091;28;20205;-89
2022/12/20 03:17:31;;;;;;;1.67;1.60;;;-0.20;99.90;;;;;;4957232;28;20198;-89
2022/12/20 03:19:57;;;;;;;2.03;1.90;;;1.30;99.90;;;;;;4957262;28;20191;-89
2022/12/20 03:22:22;;;;;;;2.37;2.13;;;1.90;99.90;;;;;;4941419;28;20619;-89
2022/12/20 03:24:49;;;;;;;1.20;1.20;;;0.20;99.90;;;;;;4940985;28;20222;-89
2022/12/20 03:27:15;;;;;;;3.13;2.80;;;-0.10;99.90;;;;;;4957028;28;20203;-89
2022/12/20 03:29:41;;;;;;;4.97;2.93;;;1.40;99.90;;;;;;4974527;28;20185;-90
2022/12/20 03:32:06;;;;;;;2.80;1.57;;;-0.10;99.90;;;;;;4957011;28;20186;-89
2022/12/20 03:34:32;;;;;;;2.83;2.60;;;1.60;99.90;;;;;;4974606;28;20201;-89
2022/12/20 03:36:57;;;;;;;1.67;1.57;;;-0.20;99.90;;;;;;4956989;28;20299;-88
2022/12/20 03:39:23;;;;;;;2.83;2.63;;;-0.20;99.90;;;;;;4941303;28;20210;-87
2022/12/20 03:41:49;;;;;;;2.37;1.47;;;-0.10;99.90;;;;;;4957241;28;20647;-90
2022/12/20 03:44:14;;;;;;;1.27;1.23;;;1.10;99.90;;;;;;4956464;28;20234;-88
2022/12/20 03:46:40;;;;;;;1.80;1.70;;;0.00;99.90;;;;;;4956776;28;20200;-88
2022/12/20 03:49:06;;;;;;;1.90;1.53;;;1.90;99.90;;;;;;4957006;28;20721;-89
2022/12/20 03:51:31;;;;;;;2.57;2.37;;;1.30;99.90;;;;;;4957169;28;20179;-89
2022/12/20 03:53:57;;;;;;;2.23;2.03;;;1.90;99.90;;;;;;4956861;28;20187;-90
2022/12/20 03:56:22;;;;;;;10.97;3.17;;;0.50;99.90;;;;;;4941228;28;20190;-90
2022/12/20 03:58:48;;;;;;;2.43;2.30;;;0.00;99.90;;;;;;4957162;28;20178;-88
2022/12/20 04:01:35;;;;;;;1.00;1.00;;;1.80;99.90;;;;;;4956526;28;20234;-90
2022/12/20 04:04:01;;;;;;;4.47;3.13;;;0.00;99.90;;;;;;4977227;28;20213;-90
2022/12/20 04:06:27;;;;;;;2.20;2.10;;;2.00;99.90;;;;;;4960665;28;20648;-90
2022/12/20 04:08:53;;;;;;;4.77;3.57;;;1.90;99.90;;;;;;4960759;28;20208;-90
2022/12/20 04:11:18;;;;;;;4.50;2.67;;;0.00;99.90;;;;;;4960843;28;20245;-90
2022/12/20 04:13:46;;;;;;;5.93;3.23;;;1.80;99.90;;;;;;4944596;28;20175;-90
2022/12/20 04:16:14;;;;;;;4.97;1.87;;;0.00;99.90;;;;;;4960411;28;20185;-89
2022/12/20 04:18:40;;;;;;;7.37;2.63;;;0.00;99.90;;;;;;4990045;28;20641;-88
2022/12/20 04:21:06;;;;;;;4.97;3.77;;;0.30;99.90;;;;;;4978452;28;20185;-89
2022/12/20 04:23:36;;;;;;;2.90;2.17;;;0.30;99.90;;;;;;4972267;28;20612;-89
2022/12/20 04:26:03;;;;;;;2.90;2.30;;;0.10;99.90;;;;;;4960468;28;20187;-89
2022/12/20 04:28:29;;;;;;;4.00;2.97;;;1.30;99.90;;;;;;4985390;28;20269;-89
2022/12/20 04:30:55;;;;;;;3.97;3.40;;;0.20;99.90;;;;;;4983618;28;20186;-89
2022/12/20 04:33:21;;;;;;;5.00;2.33;;;2.10;99.90;;;;;;4980966;28;20198;-90
2022/12/20 04:35:47;;;;;;;4.53;2.37;;;0.70;99.90;;;;;;4959971;28;20567;-89
2022/12/20 04:38:13;;;;;;;3.30;3.07;;;0.30;99.90;;;;;;4977868;28;20190;-90
2022/12/20 04:40:39;;;;;;;2.17;2.07;;;0.20;99.90;;;;;;4986931;28;20179;-90
2022/12/20 04:43:05;;;;;;;5.10;2.03;;;0.20;99.90;;;;;;4993198;28;20282;-91
2022/12/20 04:45:30;;;;;;;3.80;2.30;;;0.70;99.90;;;;;;4960144;28;20191;-91
2022/12/20 04:47:56;;;;;;;1.23;1.23;;;1.00;99.90;;;;;;4959834;28;20194;-89
2022/12/20 04:50:22;;;;;;;5.87;3.37;;;1.60;99.90;;;;;;4959093;28;20193;-88
2022/12/20 04:55:39;;;;;;;3.77;3.30;;;1.50;99.90;;;;;;4960346;28;20683;-89
2022/12/20 04:58:06;;;;;;;2.67;2.33;;;0.20;99.90;;;;;;4947720;29;20183;-89
2022/12/20 05:00:32;;;;;;;2.03;1.93;;;0.30;99.90;;;;;;4924599;29;20188;-90
2022/12/20 05:02:58;;;;;;;2.77;2.17;;;1.30;99.90;;;;;;4957299;29;20225;-89
2022/12/20 05:05:24;;;;;;;10.43;3.67;;;1.70;99.90;;;;;;4939971;29;20191;-89
2022/12/20 05:07:50;;;;;;;3.63;2.07;;;0.50;99.90;;;;;;4948155;28;20194;-90
2022/12/20 05:10:16;;;;;;;3.20;2.20;;;0.30;99.90;;;;;;4948306;28;20187;-90
2022/12/20 05:12:41;;;;;;;2.50;2.30;;;0.30;99.90;;;;;;4943212;28;20238;-90
2022/12/20 05:15:08;;;;;;;3.03;2.83;;;0.30;99.90;;;;;;4956053;28;20189;-89
2022/12/20 05:17:34;;;;;;;2.57;2.23;;;0.40;99.90;;;;;;4976109;28;20200;-88
2022/12/20 05:20:00;;;;;;;14.37;3.23;;;1.50;99.90;;;;;;4963159;28;20274;-89
2022/12/20 05:27:55;;;;;;;1.60;1.57;;;1.30;99.90;;;;;;4964557;28;20221;-90
2022/12/20 05:30:20;;;;;;;6.00;2.47;;;0.40;99.90;;;;;;4942643;28;20210;-90
2022/12/20 05:32:46;;;;;;;1.13;1.13;;;0.40;99.90;;;;;;4973369;28;20184;-90
2022/12/20 05:35:12;;;;;;;2.77;2.57;;;0.60;99.90;;;;;;4943166;28;20178;-90
2022/12/20 05:37:39;;;;;;;7.80;3.70;;;0.40;99.90;;;;;;4975136;28;20278;-90
2022/12/20 05:40:05;;;;;;;3.67;3.37;;;0.50;99.90;;;;;;4942695;28;20171;-91
2022/12/20 05:42:31;;;;;;;2.33;2.23;;;0.50;99.90;;;;;;4915794;28;20192;-91
2022/12/20 05:44:56;;;;;;;1.60;1.50;;;2.50;99.90;;;;;;4918519;28;20246;-89
2022/12/20 05:47:22;;;;;;;1.70;1.60;;;0.50;99.90;;;;;;4949283;28;20186;-90
2022/12/20 05:49:48;;;;;;;2.07;1.97;;;1.50;99.90;;;;;;4967448;28;20720;-88
2022/12/20 05:52:13;;;;;;;5.60;2.27;;;1.30;99.90;;;;;;4957419;28;20179;-91
2022/12/20 05:54:39;;;;;;;7.23;3.93;;;1.00;99.90;;;;;;4969594;28;20198;-89
2022/12/20 05:57:04;;;;;;;2.47;2.27;;;1.20;99.90;;;;;;4915997;28;20321;-91
2022/12/20 05:59:30;;;;;;;5.50;3.23;;;1.10;99.90;;;;;;4957044;28;20543;-89
2022/12/20 06:01:56;;;;;;;11.97;3.03;;;2.00;99.90;;;;;;4926531;28;20663;-90
2022/12/20 06:04:21;;;;;;;2.93;2.37;;;1.60;99.90;;;;;;4958928;28;20207;-91
2022/12/20 06:06:47;;;;;;;6.73;3.07;;;1.20;99.90;;;;;;4939615;29;20191;-87
2022/12/20 06:09:12;;;;;;;2.17;1.90;;;0.60;99.90;;;;;;4939462;29;20192;-91
2022/12/20 06:11:38;;;;;;;4.37;2.40;;;0.90;99.90;;;;;;4923583;29;20635;-91
2022/12/20 06:14:04;;;;;;;6.33;2.90;;;0.60;99.90;;;;;;4956347;29;20199;-91
2022/12/20 06:16:30;;;;;;;2.60;1.90;;;1.70;99.90;;;;;;4908983;29;20298;-91
2022/12/20 06:18:55;;;;;;;0.97;0.97;;;1.70;99.90;;;;;;4939592;29;20692;-90
2022/12/20 06:21:22;;;;;;;4.37;3.67;;;0.60;99.90;;;;;;4956228;29;20246;-90
2022/12/20 06:23:47;;;;;;;11.23;2.63;;;1.50;99.90;;;;;;4956379;29;20307;-89
2022/12/20 06:26:13;;;;;;;2.93;2.37;;;1.80;99.90;;;;;;4939189;29;20274;-91
2022/12/20 06:28:41;;;;;;;3.47;2.40;;;1.80;99.90;;;;;;4939333;28;20211;-91
2022/12/20 06:31:09;;;;;;;2.97;2.77;;;2.60;99.90;;;;;;4960589;28;20285;-89
2022/12/20 06:33:35;;;;;;;12.43;3.27;;;1.90;99.90;;;;;;4954547;28;20183;-89
2022/12/20 06:36:01;;;;;;;4.00;2.60;;;3.30;99.90;;;;;;4974817;28;20639;-89
2022/12/20 06:38:26;;;;;;;6.57;2.27;;;2.80;99.90;;;;;;4957617;28;20190;-89
2022/12/20 06:40:55;;;;;;;4.37;3.63;;;0.70;99.90;;;;;;4974429;28;20191;-90
2022/12/20 06:43:20;;;;;;;3.30;2.77;;;0.70;99.90;;;;;;4935354;28;20303;-89
2022/12/20 06:45:46;;;;;;;3.23;2.93;;;2.80;99.90;;;;;;4977012;28;20522;-90
2022/12/20 06:48:11;;;;;;;2.10;1.93;;;0.70;99.90;;;;;;4976451;28;20183;-89
2022/12/20 06:50:38;;;;;;;7.83;2.27;;;0.80;99.90;;;;;;4973597;28;20200;-91
2022/12/20 06:53:04;;;;;;;6.33;1.60;;;0.80;99.90;;;;;;4983692;28;20198;-89
2022/12/20 06:55:29;;;;;;;2.00;1.67;;;1.80;99.90;;;;;;4958742;28;20273;-89
2022/12/20 06:57:55;;;;;;;3.43;3.00;;;0.90;99.90;;;;;;4975649;28;20180;-88
2022/12/20 07:00:21;;;;;;;2.53;2.07;;;0.90;99.90;;;;;;4976805;28;20202;-89
2022/12/20 07:02:47;;;;;;;3.97;3.13;;;0.90;99.90;;;;;;4982827;28;20277;-89
2022/12/20 07:05:13;;;;;;;3.03;2.63;;;2.90;99.90;;;;;;4954799;28;20196;-87
2022/12/20 07:07:38;;;;;;;4.53;3.27;;;1.00;99.90;;;;;;4958261;28;20245;-89
2022/12/20 07:10:05;;;;;;;3.53;2.43;;;1.00;99.90;;;;;;4957334;28;20189;-90
2022/12/20 07:12:32;;;;;;;1.63;1.53;;;1.00;99.90;;;;;;4957563;28;20185;-90
2022/12/20 07:14:58;;;;;;;2.00;1.53;;;1.00;99.90;;;;;;4957602;28;20188;-89
2022/12/20 07:17:24;;;;;;;4.37;2.23;;;1.00;99.90;;;;;;4976995;28;20190;-90
2022/12/20 07:19:50;;;;;;;4.23;2.83;;;2.10;99.90;;;;;;4957692;28;20627;-89
2022/12/20 07:22:15;;;;;;;6.80;3.83;;;2.30;99.90;;;;;;4951940;28;20197;-88
2022/12/20 07:24:41;;;;;;;4.67;2.20;;;2.30;99.90;;;;;;4951241;28;20243;-89
2022/12/20 07:27:07;;;;;;;3.80;2.93;;;1.20;99.90;;;;;;4944175;28;20203;-89
2022/12/20 07:29:33;;;;;;;3.37;2.93;;;1.20;99.90;;;;;;4971166;28;20196;-89
2022/12/20 07:31:58;;;;;;;3.43;2.10;;;1.30;99.90;;;;;;4928492;29;20187;-89
2022/12/20 07:34:24;;;;;;;3.53;3.13;;;1.70;99.90;;;;;;4950790;28;20564;-88
2022/12/20 07:36:50;;;;;;;3.13;2.53;;;1.90;99.90;;;;;;4956979;28;20253;-89
2022/12/20 07:39:15;;;;;;;3.27;2.10;;;1.60;99.90;;;;;;4941775;28;20703;-89
2022/12/20 07:41:41;;;;;;;4.33;3.40;;;3.20;99.90;;;;;;4960729;28;20214;-89
2022/12/20 07:44:07;;;;;;;2.77;2.57;;;1.40;99.90;;;;;;4953234;28;20234;-88
2022/12/20 07:46:33;;;;;;;4.03;1.97;;;1.30;99.90;;;;;;4948595;28;20235;-88
2022/12/20 07:48:59;;;;;;;2.40;2.20;;;1.70;99.90;;;;;;4941843;29;20246;-88
2022/12/20 07:51:33;;;;;;;2.17;1.87;;;2.80;99.90;;;;;;4925736;29;20258;-87
2022/12/20 07:54:04;;;;;;;3.63;3.30;;;1.40;99.90;;;;;;4958865;29;20183;-87
2022/12/20 07:56:33;;;;;;;11.57;2.70;;;3.50;99.90;;;;;;4959067;29;20168;-88
2022/12/20 07:59:00;;;;;;;4.97;2.87;;;2.80;99.90;;;;;;4941580;29;20187;-88
2022/12/20 08:01:29;;;;;;;3.73;3.43;;;3.70;99.90;;;;;;4962808;28;20181;-86
2022/12/20 08:04:01;;;;;;;9.03;4.03;;;1.40;99.90;;;;;;4987469;28;20222;-88
2022/12/20 08:06:27;;;;;;;6.83;2.93;;;1.40;99.90;;;;;;4961186;28;20190;-88
2022/12/20 08:08:56;;;;;;;1.30;1.30;;;2.80;99.90;;;;;;4960922;28;20255;-88
2022/12/20 08:11:23;;;;;;;3.20;2.80;;;1.90;99.90;;;;;;4961405;28;20239;-87
2022/12/20 08:13:50;;;;;;;2.50;2.33;;;1.40;99.90;;;;;;4979327;28;20190;-88
2022/12/20 08:16:15;;;;;;;3.50;2.53;;;1.70;99.90;;;;;;4979696;28;20269;-88
2022/12/20 08:18:41;;;;;;;2.23;2.13;;;1.50;99.90;;;;;;4983400;28;20229;-87
2022/12/20 08:21:07;;;;;;;4.77;2.57;;;3.50;99.90;;;;;;4987551;28;20194;-89
2022/12/20 08:23:33;;;;;;;2.63;2.43;;;1.50;99.90;;;;;;4980234;28;20364;-88
2022/12/20 08:26:00;;;;;;;4.97;3.03;;;1.50;99.90;;;;;;4960514;28;20179;-89
2022/12/20 08:28:26;;;;;;;4.80;2.83;;;2.10;99.90;;;;;;4980414;28;20194;-89
2022/12/20 08:30:52;;;;;;;5.90;2.57;;;1.50;99.90;;;;;;4948168;28;20187;-88
2022/12/20 08:33:18;;;;;;;7.47;3.17;;;2.00;99.90;;;;;;4959894;28;20225;-88
2022/12/20 08:35:44;;;;;;;6.63;3.13;;;1.50;99.90;;;;;;4977146;28;20178;-88
2022/12/20 08:38:12;;;;;;;2.03;1.93;;;1.50;99.90;;;;;;4960741;28;20272;-89
2022/12/20 08:40:38;;;;;;;5.67;3.77;;;3.00;99.90;;;;;;4960373;28;20598;-88
2022/12/20 08:43:03;;;;;;;9.83;2.30;;;1.50;99.90;;;;;;4966246;28;20194;-87
2022/12/20 08:45:29;;;;;;;4.03;2.67;;;2.50;99.90;;;;;;4985282;28;20241;-90
2022/12/20 08:47:54;;;;;;;2.93;1.80;;;1.70;99.90;;;;;;4962968;28;20581;-88
2022/12/20 08:50:20;;;;;;;4.60;4.03;;;1.50;99.90;;;;;;4946811;28;20198;-88
2022/12/20 08:52:46;;;;;;;4.57;2.70;;;2.50;99.90;;;;;;4945925;29;20193;-88
2022/12/20 08:55:11;;;;;;;8.63;2.93;;;2.50;99.90;;;;;;4976295;28;20270;-87
2022/12/20 08:57:37;;;;;;;1.93;1.77;;;1.60;99.90;;;;;;4959825;28;20187;-87
2022/12/20 09:00:04;;;;;;;7.50;3.57;;;2.00;99.90;;;;;;4975746;28;20191;-87
2022/12/20 09:02:30;;;;;;;2.87;2.67;;;1.60;99.90;;;;;;4957167;28;20190;-87
2022/12/20 09:04:56;;;;;;;5.03;2.47;;;;;;;;;;4957861;28;20269;-89
2022/12/20 09:07:22;;;;;;;5.20;2.90;;;1.80;99.90;;;;;;4942243;28;20199;-88
2022/12/20 09:09:47;;;;;;;6.77;3.17;;;1.90;99.90;;;;;;4941978;28;20643;-87
2022/12/20 09:12:13;;;;;;;6.40;3.33;;;3.00;99.90;;;;;;4938627;28;20191;-87
2022/12/20 09:14:38;;;;;;;6.17;4.17;;;1.90;99.90;;;;;;4959017;28;20237;-87
2022/12/20 09:17:05;;;;;;;4.97;3.87;;;;;;;;;;4959539;28;20186;-88
2022/12/20 09:19:30;;;;;;;7.90;3.43;;;2.00;99.90;;;;;;4958925;28;20250;-88
2022/12/20 09:21:56;;;;;;;4.83;4.00;;;2.00;99.90;;;;;;4958977;28;20204;-88
2022/12/20 09:24:22;;;;;;;8.10;4.00;;;2.00;99.90;;;;;;4959220;28;20612;-87
2022/12/20 09:26:48;;;;;;;7.63;4.03;;;2.00;99.90;;;;;;4943944;28;20644;-88
2022/12/20 09:29:13;;;;;;;7.10;3.30;;;2.10;99.90;;;;;;4978595;28;20570;-86
2022/12/20 09:31:39;;;;;;;5.50;3.17;;;2.20;99.90;;;;;;4995473;28;20606;-86
2022/12/20 09:34:04;;;;;;;6.80;3.63;;;2.30;99.90;;;;;;4954641;28;20674;-87
2022/12/20 09:36:30;;;;;;;13.77;5.17;;;2.30;99.90;;;;;;4935341;29;20183;-87
2022/12/20 09:38:56;;;;;;;3.80;3.00;;;2.30;99.90;;;;;;4940026;28;20254;-87
2022/12/20 09:41:32;;;;;;;3.60;2.30;;;2.20;99.90;;;;;;4958195;28;20209;-88
2022/12/20 09:44:02;;;;;;;3.37;2.77;;;2.30;99.90;;;;;;4973817;28;20731;-87
2022/12/20 09:46:28;;;;;;;5.83;3.67;;;2.20;99.90;;;;;;4958607;28;20189;-88
2022/12/20 09:48:54;;;;;;;3.80;3.10;;;2.10;99.90;;;;;;4943423;28;20629;-87
2022/12/20 09:51:26;;;;;;;4.60;3.83;;;2.10;99.90;;;;;;4958630;28;20728;-86
2022/12/20 09:54:01;;;;;;;6.73;2.60;;;2.10;99.90;;;;;;4963458;28;20271;-86
2022/12/20 09:56:43;;;;;;;5.17;2.60;;;2.10;99.90;;;;;;4970384;28;20189;-87
2022/12/20 09:59:18;;;;;;;5.97;2.90;;;2.10;99.90;;;;;;4971461;28;20187;-88
2022/12/20 10:01:46;;;;;;;8.10;4.47;;;2.00;99.90;;;;;;4966871;28;20234;-87
2022/12/20 10:04:24;;;;;;;8.70;4.43;;;2.10;99.90;;;;;;4970114;29;20204;-88
2022/12/20 10:06:50;;;;;;;3.00;2.63;;;2.00;99.90;;;;;;4951944;29;20206;-84
2022/12/20 10:09:43;;;;;;;9.57;2.90;;;2.00;99.90;;;;;;4966575;28;20214;-84
2022/12/20 10:12:23;;;;;;;3.37;3.10;;;2.00;99.90;;;;;;4967860;28;20652;-86
2022/12/20 10:15:40;;;;;;;5.40;2.63;;;1.90;99.90;;;;;;4965665;28;20190;-85
2022/12/20 10:18:37;;;;;;;11.53;4.80;;;1.90;99.90;;;;;;4938911;28;20191;-86
2022/12/20 10:21:33;;;;;;;2.90;2.47;;;1.90;99.90;;;;;;4939758;29;20200;-86
2022/12/20 10:24:02;;;;;;;3.70;2.23;;;1.90;99.90;;;;;;4943162;28;20381;-88
2022/12/20 10:26:28;;;;;;;6.70;3.37;;;1.90;99.90;;;;;;4974312;28;20191;-87
2022/12/20 10:28:54;;;;;;;2.20;2.10;;;1.90;99.90;;;;;;4958399;28;20682;-87
2022/12/20 10:31:20;;;;;;;5.37;2.63;;;1.90;99.90;;;;;;4967905;28;20214;-86
2022/12/20 10:33:46;;;;;;;7.03;4.03;;;1.80;99.90;;;;;;4974948;28;20178;-87
2022/12/20 10:36:29;;;;;;;7.53;3.93;;;1.90;99.90;;;;;;4973286;28;20659;-87
2022/12/20 10:39:07;;;;;;;4.40;3.17;;;1.80;99.90;;;;;;4966715;28;20573;-87
2022/12/20 10:41:50;;;;;;;5.27;3.40;;;1.80;99.90;;;;;;4948822;28;20248;-87
2022/12/20 10:44:25;;;;;;;11.23;4.53;;;1.90;99.90;;;;;;4948245;28;20241;-86
2022/12/20 10:46:56;;;;;;;4.87;3.80;;;1.90;99.90;;;;;;4950979;28;20680;-85
2022/12/20 10:49:37;;;;;;;3.23;3.00;;;1.90;99.90;;;;;;4963017;28;20518;-85
2022/12/20 10:52:16;;;;;;;7.40;4.83;;;1.90;99.90;;;;;;4965059;28;20209;-86
2022/12/20 10:54:44;;;;;;;6.70;3.50;;;2.00;99.90;;;;;;4969012;28;20186;-87
2022/12/20 10:57:23;;;;;;;7.10;3.83;;;2.00;99.90;;;;;;4974287;28;20190;-87
2022/12/20 10:59:59;;;;;;;3.40;2.50;;;2.10;99.90;;;;;;4975305;28;20188;-88
2022/12/20 11:02:28;;;;;;;5.83;3.60;;;2.20;99.90;;;;;;4962337;28;20183;-88
2022/12/20 11:05:17;;;;;;;4.47;2.70;;;2.40;99.90;;;;;;4944054;29;20214;-87
2022/12/20 11:07:56;;;;;;;3.63;3.07;;;2.50;99.90;;;;;;4957488;28;20200;-88
2022/12/20 11:10:28;;;;;;;8.03;3.33;;;2.70;99.90;;;;;;4957356;28;20684;-86
2022/12/20 11:12:59;;;;;;;5.47;3.67;;;2.90;99.90;;;;;;4975826;28;20194;-85
2022/12/20 11:15:30;;;;;;;5.27;2.97;;;3.30;99.90;;;;;;4993260;28;20715;-86
2022/12/20 11:18:17;;;;;;;3.40;2.53;;;4.10;99.90;;;;;;4963425;28;20551;-88
2022/12/20 11:20:48;;;;;;;5.20;4.07;;;4.30;99.90;;;;;;4953269;29;20253;-85
2022/12/20 11:23:28;;;;;;;5.00;3.43;;;4.40;99.90;;;;;;4937680;29;20616;-86
2022/12/20 11:25:57;;;;;;;10.33;4.30;;;4.50;99.90;;;;;;4963735;28;20196;-87
2022/12/20 11:28:34;;;;;;;8.07;4.17;;;4.70;99.90;;;;;;4976498;28;20186;-86
2022/12/20 11:31:15;;;;;;;7.33;4.33;;;4.80;99.90;;;;;;4976893;28;20221;-86
2022/12/20 11:33:47;;;;;;;7.00;4.03;;;5.20;99.90;;;;;;4987325;28;20270;-87
2022/12/20 11:36:50;;;;;;;8.57;4.00;;;5.40;99.90;;;;;;4954807;29;20238;-86
2022/12/20 11:39:25;;;;;;;5.90;4.20;;;5.50;99.90;;;;;;4937597;29;20195;-86
2022/12/20 11:42:11;;;;;;;8.77;4.50;;;4.90;99.90;;;;;;4954818;29;20182;-86
2022/12/20 11:44:37;;;;;;;6.47;3.67;;;4.10;99.90;;;;;;4952892;28;20298;-87
2022/12/20 11:47:05;;;;;;;6.13;4.33;;;3.80;99.90;;;;;;4937446;29;20585;-86
2022/12/20 11:49:56;;;;;;;7.73;4.67;;;4.00;99.90;;;;;;4937666;29;20214;-86
2022/12/20 11:52:54;;;;;;;9.43;4.20;;;3.90;99.90;;;;;;4976849;28;20213;-85
2022/12/20 11:55:30;;;;;;;8.17;4.40;;;3.90;99.90;;;;;;4967853;28;20201;-86
2022/12/20 11:58:25;;;;;;;8.20;4.57;;;4.10;99.90;;;;;;4989310;28;20662;-87
2022/12/20 12:00:58;;;;;;;13.43;6.03;;;4.20;99.90;;;;;;4967008;28;20265;-87
2022/12/20 12:03:39;;;;;;;5.07;3.70;;;4.10;99.90;;;;;;4978262;28;20217;-86
2022/12/20 12:06:22;;;;;;;9.57;4.47;;;3.80;99.90;;;;;;4950703;28;20233;-85
2022/12/20 12:09:03;;;;;;;8.17;4.80;;;3.80;99.90;;;;;;4956720;28;20194;-87
2022/12/20 12:11:34;;;;;;;6.43;4.47;;;4.00;99.90;;;;;;4964291;28;20665;-86
2022/12/20 12:14:02;;;;;;;6.23;3.90;;;3.90;99.90;;;;;;4971836;28;20682;-86
2022/12/20 12:16:36;;;;;;;13.80;5.37;;;3.70;99.90;;;;;;4973751;28;20271;-86
2022/12/20 12:19:02;;;;;;;8.27;4.67;;;3.50;99.90;;;;;;4956253;28;20194;-86
2022/12/20 12:21:34;;;;;;;21.03;8.57;;;3.40;99.90;;;;;;4956511;28;20613;-86
2022/12/20 12:24:29;;;;;;;11.00;5.70;;;3.20;99.90;;;;;;4967927;28;20686;-87
2022/12/20 12:26:57;;;;;;;5.17;3.47;;;3.00;99.90;;;;;;4970759;28;20281;-85
2022/12/20 12:29:23;;;;;;;6.33;4.20;;;3.00;99.90;;;;;;4989917;28;20276;-85
2022/12/20 12:32:06;;;;;;;8.23;4.03;;;2.90;99.90;;;;;;4944101;28;20226;-86
2022/12/20 12:34:44;;;;;;;9.00;3.27;;;2.80;99.90;;;;;;4960526;28;20177;-86
2022/12/20 12:37:31;;;;;;;3.03;2.80;;;2.70;99.90;;;;;;4976996;28;20186;-86
2022/12/20 12:40:06;;;;;;;8.13;4.20;;;2.60;99.90;;;;;;4972633;28;20216;-85
2022/12/20 12:42:53;;;;;;;5.57;3.00;;;2.60;99.90;;;;;;4999555;28;20212;-85
2022/12/20 12:45:26;;;;;;;4.77;2.90;;;2.50;99.90;;;;;;4978590;28;20332;-84
2022/12/20 12:48:14;;;;;;;5.50;3.40;;;2.50;99.90;;;;;;4996620;28;20260;-85
2022/12/20 12:50:47;;;;;;;6.17;3.33;;;2.50;99.90;;;;;;4995597;28;20196;-87
2022/12/20 12:53:26;;;;;;;3.97;3.53;;;2.40;99.90;;;;;;4995506;28;20177;-86
2022/12/20 12:55:53;;;;;;;5.20;2.70;;;2.40;99.90;;;;;;4957704;29;20183;-85
2022/12/20 12:58:22;;;;;;;18.17;4.90;;;2.40;99.90;;;;;;4940219;29;20211;-85
2022/12/20 13:00:58;;;;;;;5.77;3.70;;;2.30;99.90;;;;;;4957855;29;20184;-85
2022/12/20 13:03:44;;;;;;;6.63;4.10;;;2.30;99.90;;;;;;4957272;29;20216;-86
2022/12/20 13:06:43;;;;;;;5.13;2.97;;;2.20;99.90;;;;;;4957709;29;20185;-86
2022/12/20 13:09:27;;;;;;;3.33;2.13;;;2.30;99.90;;;;;;4940004;29;20266;-86
2022/12/20 13:11:54;;;;;;;7.13;3.93;;;2.20;99.90;;;;;;4940105;29;20668;-85
2022/12/20 13:14:22;;;;;;;6.60;3.73;;;2.20;99.90;;;;;;4957505;29;20512;-85
2022/12/20 13:16:53;;;;;;;5.13;3.37;;;2.10;99.90;;;;;;4940312;29;20191;-85
2022/12/20 13:19:25;;;;;;;7.83;4.97;;;2.10;99.90;;;;;;4957644;29;20269;-85